Time;durP1;ratioP1;P1;durP2;ratioP2;P2;SDS_P1;SDS_P2;PMS_P1;PMS_P2;Temp;Humidity;BMP_temperature;BMP_pressure;BME280_temperature;BME280_humidity;BME280_pressure;Samples;Min_cycle;Max_cycle;Signal;HPM_P1;HPM_P2
2022/03/07 00:01:41;;;;;;;;;;;;;;;2.93;44.26;100038.56;4457169;32;32907;-75
2022/03/07 00:04:16;;;;;;;24.00;12.15;;;;;;;3.30;43.73;100049.28;4456754;32;33494;-75
2022/03/07 00:06:50;;;;;;;23.15;11.50;;;;;;;2.94;44.24;100045.69;4469219;32;32984;-75
2022/03/07 00:09:24;;;;;;;24.63;12.48;;;;;;;2.90;44.59;100056.97;4456528;32;32767;-75
2022/03/07 00:11:57;;;;;;;23.60;12.13;;;;;;;3.01;44.12;100053.22;4456328;32;32847;-75
2022/03/07 00:14:33;;;;;;;27.08;12.82;;;;;;;3.00;44.31;100057.78;4469186;32;33347;-75
2022/03/07 00:17:10;;;;;;;23.65;12.02;;;;;;;2.69;45.19;100064.50;4469703;32;33245;-75
2022/03/07 00:19:52;;;;;;;24.52;10.88;;;;;;;3.25;43.62;100048.06;4469107;32;33662;-75
2022/03/07 00:22:22;;;;;;;25.00;11.88;;;;;;;2.89;44.47;100055.28;4456360;32;35304;-75
2022/03/07 00:24:51;;;;;;;25.35;12.77;;;;;;;2.81;44.79;100058.72;4469178;32;33774;-75
2022/03/07 00:27:21;;;;;;;23.42;12.48;;;;;;;3.03;44.26;100062.06;4469201;32;33212;-76
2022/03/07 00:29:54;;;;;;;23.62;11.85;;;;;;;3.10;44.23;100058.56;4456537;32;33666;-75
2022/03/07 00:32:25;;;;;;;23.77;12.00;;;;;;;2.77;44.53;100061.88;4456492;32;32982;-75
2022/03/07 00:34:55;;;;;;;28.08;12.18;;;;;;;2.75;44.84;100064.75;4470278;32;33863;-75
2022/03/07 00:37:28;;;;;;;20.67;11.43;;;;;;;2.85;44.66;100070.13;4470176;32;33709;-75
2022/03/07 00:39:58;;;;;;;20.92;12.07;;;;;;;2.69;45.09;100068.06;4456246;32;33302;-75
2022/03/07 00:42:31;;;;;;;24.37;12.27;;;;;;;3.04;44.48;100063.75;4467885;32;35385;-75
2022/03/07 00:45:04;;;;;;;24.33;12.35;;;;;;;2.93;44.48;100057.53;4456198;32;32517;-74
2022/03/07 00:47:35;;;;;;;24.83;12.68;;;;;;;2.71;45.11;100063.34;4456154;32;32873;-75
2022/03/07 00:50:06;;;;;;;27.60;12.85;;;;;;;2.80;44.94;100057.03;4468978;32;34489;-74
2022/03/07 00:52:36;;;;;;;24.05;12.05;;;;;;;2.71;45.19;100063.34;4468894;32;34597;-76
2022/03/07 00:55:12;;;;;;;25.12;12.40;;;;;;;2.77;45.21;100056.47;4455962;32;34770;-75
2022/03/07 00:57:51;;;;;;;23.30;12.75;;;;;;;2.88;44.93;100051.72;4469465;32;34086;-75
2022/03/07 01:00:37;;;;;;;20.95;11.05;;;;;;;2.68;45.06;100051.94;4457072;32;33593;-75
2022/03/07 01:03:15;;;;;;;24.50;12.13;;;;;;;2.94;44.44;100050.25;4444156;32;32862;-76
2022/03/07 01:05:52;;;;;;;25.55;12.37;;;;;;;3.13;44.20;100057.41;4469510;32;34199;-75
2022/03/07 01:08:27;;;;;;;23.73;12.77;;;;;;;2.86;44.69;100051.00;4469301;32;33538;-76
2022/03/07 01:10:59;;;;;;;23.35;12.93;;;;;;;2.87;44.79;100046.44;4456127;32;32392;-75
2022/03/07 01:13:35;;;;;;;25.67;11.85;;;;;;;2.92;44.47;100042.28;4457135;32;34567;-76
2022/03/07 01:16:08;;;;;;;22.48;12.57;;;;;;;2.92;44.58;100047.69;4456576;32;32622;-76
2022/03/07 01:18:44;;;;;;;;;;;;;;;2.74;45.02;100052.19;4469552;32;34155;-76
2022/03/07 01:21:27;;;;;;;25.60;12.57;;;;;;;2.87;44.77;100051.84;4457460;32;34148;-76
2022/03/07 01:24:06;;;;;;;22.67;12.30;;;;;;;2.82;44.74;100052.31;4456514;32;34309;-76
2022/03/07 01:26:43;;;;;;;24.15;12.70;;;;;;;3.19;44.08;100048.69;4456177;32;33928;-76
2022/03/07 01:29:19;;;;;;;21.83;12.60;;;;;;;2.65;44.77;100048.53;4443024;32;32139;-76
2022/03/07 01:31:51;;;;;;;23.67;13.13;;;;;;;3.04;44.21;100045.62;4456121;32;33352;-75
2022/03/07 01:34:23;;;;;;;26.48;12.45;;;;;;;2.79;44.73;100046.34;4455966;32;32876;-75
2022/03/07 01:36:59;;;;;;;22.48;11.80;;;;;;;3.04;44.38;100036.63;4468788;32;34681;-76
2022/03/07 01:39:35;;;;;;;25.10;12.40;;;;;;;3.23;43.86;100036.50;4469014;32;33154;-76
2022/03/07 01:42:19;;;;;;;23.08;11.70;;;;;;;3.34;43.49;100044.41;4468617;32;33933;-76
2022/03/07 01:44:55;;;;;;;24.12;11.80;;;;;;;3.02;44.20;100042.22;4456333;32;34311;-76
2022/03/07 01:47:33;;;;;;;22.58;12.57;;;;;;;3.13;44.02;100030.31;4468589;32;34171;-75
2022/03/07 01:50:09;;;;;;;22.42;12.48;;;;;;;3.21;44.15;100039.38;4468488;32;34167;-76
2022/03/07 01:52:53;;;;;;;24.33;12.65;;;;;;;3.23;44.04;100036.50;4455952;32;33534;-76
2022/03/07 01:55:30;;;;;;;;;;;;;;;3.40;43.64;100038.38;4458555;32;34003;-76
2022/03/07 01:58:08;;;;;;;23.27;11.57;;;;;;;3.47;43.35;100033.16;4457572;32;32638;-75
2022/03/07 02:00:45;;;;;;;22.73;11.77;;;;;;;3.02;44.11;100033.22;4470431;32;33269;-75
2022/03/07 02:03:23;;;;;;;24.67;13.07;;;;;;;2.66;44.85;100030.41;4457862;32;33326;-76
2022/03/07 02:05:59;;;;;;;25.15;12.70;;;;;;;3.08;44.02;100044.31;4445128;32;33926;-76
2022/03/07 02:08:33;;;;;;;23.87;13.88;;;;;;;3.16;43.91;100036.28;4470575;32;34602;-75
2022/03/07 02:11:01;;;;;;;25.75;12.85;;;;;;;2.81;44.39;100041.63;4457407;32;32823;-75
2022/03/07 02:13:32;;;;;;;23.83;12.05;;;;;;;3.32;43.78;100035.56;4470303;32;33541;-75
2022/03/07 02:16:03;;;;;;;57.22;24.83;;;;;;;3.37;43.44;100033.25;4471439;32;34544;-76
2022/03/07 02:18:37;;;;;;;31.80;13.70;;;;;;;3.30;43.80;100037.56;4470503;32;34032;-76
2022/03/07 02:21:17;;;;;;;25.20;13.07;;;;;;;3.25;43.73;100039.94;4470193;32;33501;-76
2022/03/07 02:23:51;;;;;;;22.55;12.63;;;;;;;3.34;43.49;100035.41;4457643;32;32133;-76
2022/03/07 02:26:24;;;;;;;;;;;;;;;3.04;43.98;100031.22;4458067;32;34424;-76
2022/03/07 02:29:02;;;;;;;24.25;12.80;;;;;;;3.41;43.40;100037.34;4445501;32;32713;-76
2022/03/07 02:31:34;;;;;;;24.10;12.60;;;;;;;3.34;43.63;100029.97;4470035;32;33463;-76
2022/03/07 02:34:11;;;;;;;23.55;12.77;;;;;;;3.49;42.96;100025.72;4469979;32;33711;-76
2022/03/07 02:36:46;;;;;;;23.25;12.18;;;;;;;3.53;42.97;100022.56;4457614;32;34530;-76
2022/03/07 02:39:17;;;;;;;23.48;11.98;;;;;;;3.48;43.27;100022.16;4469837;32;34003;-76
2022/03/07 02:41:49;;;;;;;22.45;12.27;;;;;;;3.32;43.45;100024.72;4457145;32;33550;-76
2022/03/07 02:44:24;;;;;;;24.73;12.68;;;;;;;3.10;44.00;100030.59;4457590;32;33737;-75
2022/03/07 02:47:03;;;;;;;24.20;13.18;;;;;;;3.00;44.32;100032.53;4458565;32;32904;-75
2022/03/07 02:49:43;;;;;;;24.30;13.00;;;;;;;3.13;43.90;100035.72;4457537;32;34930;-76
2022/03/07 02:52:16;;;;;;;26.75;13.23;;;;;;;3.14;43.99;100038.28;4443544;32;32768;-76
2022/03/07 02:54:49;;;;;;;27.90;12.85;;;;;;;3.05;44.44;100038.34;4457989;32;32279;-75
2022/03/07 02:57:25;;;;;;;24.65;12.73;;;;;;;3.07;44.19;100047.19;4456913;32;33738;-75
2022/03/07 03:00:04;;;;;;;25.17;13.27;;;;;;;2.88;44.52;100046.28;4458174;32;33848;-75
2022/03/07 03:02:39;;;;;;;25.17;12.57;;;;;;;2.55;45.35;100046.91;4471089;32;33213;-76
2022/03/07 03:05:26;;;;;;;25.33;13.02;;;;;;;2.98;44.38;100049.78;4457414;32;33217;-75
2022/03/07 03:08:05;;;;;;;25.33;12.88;;;;;;;2.78;45.05;100048.19;4469934;32;34145;-76
2022/03/07 03:10:41;;;;;;;26.10;12.98;;;;;;;2.92;44.62;100047.69;4469787;32;34759;-75
2022/03/07 03:13:12;;;;;;;24.23;13.02;;;;;;;2.87;44.75;100047.28;4471049;32;33459;-76
2022/03/07 03:15:46;;;;;;;25.23;12.65;;;;;;;2.95;44.48;100041.97;4456892;32;33405;-75
2022/03/07 03:18:23;;;;;;;28.20;14.40;;;;;;;2.92;44.46;100053.13;4456993;32;33205;-75
2022/03/07 03:20:58;;;;;;;24.37;13.82;;;;;;;2.97;44.75;100052.66;4457721;32;34019;-75
2022/03/07 03:23:33;;;;;;;22.92;11.98;;;;;;;2.91;44.65;100047.84;4469690;32;33468;-75
2022/03/07 03:26:04;;;;;;;26.40;13.62;;;;;;;2.94;44.63;100061.94;4469516;32;32278;-76
2022/03/07 03:28:37;;;;;;;24.60;12.77;;;;;;;2.97;44.34;100058.94;4456912;32;32821;-76
2022/03/07 03:31:13;;;;;;;26.92;13.48;;;;;;;2.93;44.34;100056.69;4456749;32;33352;-75
2022/03/07 03:33:49;;;;;;;23.23;13.02;;;;;;;2.69;45.19;100062.62;4470820;32;34103;-76
2022/03/07 03:36:18;;;;;;;26.80;13.68;;;;;;;3.04;44.43;100063.75;4456916;32;32266;-76
2022/03/07 03:38:51;;;;;;;25.35;12.93;;;;;;;2.94;44.51;100067.37;4456800;32;35440;-76
2022/03/07 03:41:24;;;;;;;25.62;13.77;;;;;;;2.94;44.79;100066.50;4469499;32;34686;-76
2022/03/07 03:44:07;;;;;;;27.90;13.80;;;;;;;2.88;44.99;100067.97;4470781;32;33400;-76
2022/03/07 03:46:43;;;;;;;25.67;13.65;;;;;;;2.89;44.83;100075.09;4457326;32;33277;-77
2022/03/07 03:49:21;;;;;;;26.48;13.60;;;;;;;2.75;45.17;100066.59;4469610;32;35076;-76
2022/03/07 03:51:49;;;;;;;25.40;13.45;;;;;;;2.84;44.90;100069.28;4443942;32;32573;-76
2022/03/07 03:54:17;;;;;;;26.65;13.45;;;;;;;2.85;44.82;100068.28;4456716;32;33620;-76
2022/03/07 03:56:47;;;;;;;23.40;12.48;;;;;;;3.01;44.60;100075.75;4456850;32;34409;-76
2022/03/07 03:59:20;;;;;;;25.85;13.55;;;;;;;2.87;44.77;100066.25;4469266;32;35346;-76
2022/03/07 04:01:56;;;;;;;26.17;14.07;;;;;;;3.04;44.54;100074.59;4469465;32;32866;-76
2022/03/07 04:04:35;;;;;;;24.90;13.20;;;;;;;2.98;44.44;100076.06;4469504;32;34648;-76
2022/03/07 04:07:14;;;;;;;25.60;12.25;;;;;;;2.69;45.00;100075.34;4457491;32;33782;-76
2022/03/07 04:09:53;;;;;;;;;;;;;;;2.95;44.54;100076.34;4457375;32;34424;-76
2022/03/07 04:12:28;;;;;;;26.20;12.55;;;;;;;2.85;44.55;100070.97;4444707;32;33585;-76
2022/03/07 04:15:03;;;;;;;23.40;13.38;;;;;;;2.76;45.04;100068.31;4444491;32;31513;-76
2022/03/07 04:17:47;;;;;;;29.33;13.60;;;;;;;2.92;44.62;100065.81;4456580;32;34526;-76
2022/03/07 04:20:20;;;;;;;27.20;13.43;;;;;;;3.05;44.46;100068.16;4469188;32;34320;-76
2022/03/07 04:23:00;;;;;;;25.00;14.00;;;;;;;2.87;44.79;100068.97;4456903;32;34679;-76
2022/03/07 04:25:40;;;;;;;31.02;14.52;;;;;;;2.77;45.04;100070.87;4456746;32;32766;-76
2022/03/07 04:28:18;;;;;;;26.45;13.98;;;;;;;2.74;44.94;100068.47;4469383;32;33643;-76
2022/03/07 04:30:55;;;;;;;28.30;14.23;;;;;;;2.58;45.38;100073.69;4469256;32;34455;-77
2022/03/07 04:33:31;;;;;;;28.42;14.10;;;;;;;2.44;45.74;100069.59;4470425;32;34319;-76
2022/03/07 04:36:04;;;;;;;27.02;14.05;;;;;;;2.36;45.85;100069.50;4456501;32;33582;-76
2022/03/07 04:38:42;;;;;;;27.85;13.60;;;;;;;2.40;45.66;100070.03;4469472;32;34149;-76
2022/03/07 04:41:27;;;;;;;24.75;13.15;;;;;;;2.31;46.07;100069.06;4457050;32;34596;-76
2022/03/07 04:44:07;;;;;;;27.17;14.98;;;;;;;2.49;45.76;100078.16;4470413;32;33804;-76
2022/03/07 04:46:47;;;;;;;27.08;14.43;;;;;;;2.61;45.25;100078.78;4443912;32;32028;-76
2022/03/07 04:49:20;;;;;;;27.65;14.60;;;;;;;2.40;45.82;100080.87;4469062;32;34426;-76
2022/03/07 04:51:56;;;;;;;29.20;14.23;;;;;;;2.60;45.42;100071.69;4456318;32;35438;-77
2022/03/07 04:54:32;;;;;;;27.05;13.82;;;;;;;2.57;45.38;100074.69;4456808;32;34194;-76
2022/03/07 04:57:11;;;;;;;29.98;15.32;;;;;;;2.40;45.59;100073.63;4469065;32;33559;-76
2022/03/07 04:59:55;;;;;;;31.42;14.80;;;;;;;2.53;45.69;100073.28;4456407;32;34677;-76
2022/03/07 05:02:32;;;;;;;27.85;14.02;;;;;;;2.62;45.65;100072.38;4456613;32;34360;-77
2022/03/07 05:05:10;;;;;;;23.98;13.10;;;;;;;2.76;45.25;100077.31;4456564;32;33426;-76
2022/03/07 05:07:41;;;;;;;24.98;13.50;;;;;;;2.74;45.20;100079.31;4456348;32;33171;-80
2022/03/07 05:10:08;;;;;;;26.15;13.60;;;;;;;2.68;45.39;100068.22;4456198;32;33682;-75
2022/03/07 05:12:39;;;;;;;29.08;14.52;;;;;;;2.94;44.96;100075.50;4443302;32;33793;-75
2022/03/07 05:15:16;;;;;;;28.87;14.50;;;;;;;2.79;45.18;100070.72;4443162;32;32523;-75
2022/03/07 05:17:50;;;;;;;30.67;14.52;;;;;;;2.54;45.63;100073.12;4467529;32;31716;-75
2022/03/07 05:20:18;;;;;;;28.38;13.98;;;;;;;2.53;45.83;100070.56;4456076;32;32046;-75
2022/03/07 05:23:10;;;;;;;25.55;14.20;;;;;;;2.55;45.60;100074.84;4457997;32;33009;-75
2022/03/07 05:25:37;;;;;;;25.70;13.52;;;;;;;2.77;45.46;100083.56;4455935;32;33786;-75
2022/03/07 05:28:10;;;;;;;26.70;15.00;;;;;;;2.80;45.11;100075.16;4455260;32;33339;-75
2022/03/07 05:30:39;;;;;;;28.85;14.32;;;;;;;2.58;45.59;100073.69;4468751;32;33626;-75
2022/03/07 05:33:06;;;;;;;30.30;14.57;;;;;;;2.80;54.16;100075.16;4469727;32;34166;-75
2022/03/07 05:35:37;;;;;;;29.45;15.05;;;;;;;2.99;48.05;100080.47;4455800;32;32337;-76
2022/03/07 05:38:05;;;;;;;30.25;15.93;;;;;;;2.77;46.31;100083.56;4455404;32;31810;-75
2022/03/07 05:40:38;;;;;;;30.73;14.32;;;;;;;2.85;45.95;100081.81;4442930;32;32560;-76
2022/03/07 05:43:13;;;;;;;28.40;13.85;;;;;;;2.71;45.94;100084.16;4468351;32;33000;-75
2022/03/07 05:45:40;;;;;;;30.85;14.98;;;;;;;2.79;45.73;100087.00;4455873;32;32522;-76
2022/03/07 05:48:09;;;;;;;26.83;14.48;;;;;;;2.83;45.46;100089.25;4469392;32;34609;-76
2022/03/07 05:50:37;;;;;;;28.65;14.50;;;;;;;2.81;45.63;100083.12;4456512;32;33091;-75
2022/03/07 05:53:04;;;;;;;29.65;15.82;;;;;;;2.77;45.49;100084.44;4468822;32;35105;-75
2022/03/07 05:55:33;;;;;;;29.60;14.55;;;;;;;2.87;45.30;100078.97;4468996;32;34160;-74
2022/03/07 05:58:03;;;;;;;29.08;15.45;;;;;;;2.83;45.22;100083.84;4456820;32;31647;-75
2022/03/07 06:00:39;;;;;;;29.63;15.55;;;;;;;2.85;45.44;100084.53;4448337;32;32033;-75
2022/03/07 06:03:12;;;;;;;27.33;15.63;;;;;;;2.91;45.20;100089.34;4442454;32;32831;-75
2022/03/07 06:05:45;;;;;;;32.70;15.68;;;;;;;2.78;47.53;100083.44;4456062;32;33957;-76
2022/03/07 06:08:28;;;;;;;29.30;14.85;;;;;;;3.10;45.60;100090.25;4456029;32;33416;-76
2022/03/07 06:11:01;;;;;;;27.58;15.15;;;;;;;3.00;45.27;100082.19;4454974;32;34548;-75
2022/03/07 06:13:34;;;;;;;34.45;14.87;;;;;;;3.00;45.16;100090.31;4456300;32;35299;-76
2022/03/07 06:16:16;;;;;;;31.45;14.73;;;;;;;2.76;45.66;100096.28;4468876;32;34697;-75
2022/03/07 06:18:44;;;;;;;28.55;15.27;;;;;;;2.88;45.51;100094.22;4442119;32;31851;-75
2022/03/07 06:21:15;;;;;;;27.98;15.13;;;;;;;3.02;45.35;100101.00;4453770;32;33715;-76
2022/03/07 06:23:44;;;;;;;29.12;16.00;;;;;;;2.75;47.88;100108.13;4442438;32;32803;-76
2022/03/07 06:26:23;;;;;;;34.28;17.87;;;;;;;2.63;46.69;100095.75;4463691;32;33975;-76
2022/03/07 06:29:00;;;;;;;29.10;15.35;;;;;;;3.03;48.15;100106.28;4454295;32;33242;-76
2022/03/07 06:31:32;;;;;;;33.15;16.85;;;;;;;3.13;45.53;100104.38;4454064;32;32182;-79
2022/03/07 06:34:12;;;;;;;32.90;16.62;;;;;;;3.03;45.64;100103.56;4454101;32;32555;-75
2022/03/07 06:36:46;;;;;;;39.08;19.40;;;;;;;3.06;45.48;100110.53;4455632;32;33872;-75
2022/03/07 06:39:25;;;;;;;33.85;16.45;;;;;;;3.01;46.02;100107.44;4454765;32;33243;-75
2022/03/07 06:41:55;;;;;;;30.62;15.80;;;;;;;2.94;45.97;100101.75;4457518;32;32378;-77
2022/03/07 06:44:24;;;;;;;36.63;17.10;;;;;;;2.87;46.02;100103.34;4456855;32;33664;-77
2022/03/07 06:46:51;;;;;;;30.37;15.77;;;;;;;2.95;51.30;100114.31;4456941;32;34743;-76
2022/03/07 06:49:19;;;;;;;32.53;17.30;;;;;;;2.79;48.26;100108.66;4455890;32;34393;-77
2022/03/07 06:51:49;;;;;;;33.63;15.38;;;;;;;3.03;46.61;100106.28;4469573;32;33807;-77
2022/03/07 06:54:17;;;;;;;27.83;16.25;;;;;;;3.02;46.47;100107.28;4444092;32;34636;-77
2022/03/07 06:56:45;;;;;;;31.62;16.92;;;;;;;2.95;46.40;100117.03;4456653;32;33465;-77
2022/03/07 06:59:17;;;;;;;29.30;15.98;;;;;;;2.99;46.06;100115.72;4456835;32;32105;-78
2022/03/07 07:01:51;;;;;;;31.45;15.23;;;;;;;3.17;56.23;100113.91;4457065;32;33556;-77
2022/03/07 07:04:24;;;;;;;33.38;16.10;;;;;;;3.15;47.26;100117.78;4469628;32;35334;-76
2022/03/07 07:07:01;;;;;;;30.55;15.85;;;;;;;3.08;46.34;100114.81;4457659;32;34634;-77
2022/03/07 07:09:29;;;;;;;31.25;16.10;;;;;;;3.11;45.86;100119.09;4456850;32;34444;-76
2022/03/07 07:11:57;;;;;;;33.22;15.95;;;;;;;3.29;45.59;100123.53;4469764;32;34170;-77
2022/03/07 07:14:25;;;;;;;32.15;15.73;;;;;;;3.31;45.32;100115.22;4456897;32;34324;-76
2022/03/07 07:16:53;;;;;;;31.90;16.75;;;;;;;3.40;45.10;100117.03;4448914;32;32620;-77
2022/03/07 07:19:24;;;;;;;27.20;14.70;;;;;;;3.44;45.20;100115.72;4440671;32;33620;-77
2022/03/07 07:21:55;;;;;;;30.92;16.02;;;;;;;3.39;45.32;100119.91;4441427;32;33900;-77
2022/03/07 07:24:25;;;;;;;33.92;16.17;;;;;;;3.36;45.16;100118.34;4440995;32;32861;-77
2022/03/07 07:26:53;;;;;;;27.73;15.40;;;;;;;3.27;45.59;100119.25;4440702;32;32410;-77
2022/03/07 07:29:26;;;;;;;28.62;16.08;;;;;;;3.36;45.49;100123.78;4454408;32;33499;-77
2022/03/07 07:31:56;;;;;;;28.85;15.02;;;;;;;3.43;45.04;100127.59;4454045;32;33715;-76
2022/03/07 07:34:29;;;;;;;31.87;15.25;;;;;;;3.58;44.99;100131.47;4429031;32;32606;-77
2022/03/07 07:37:04;;;;;;;31.17;16.85;;;;;;;3.53;45.04;100125.66;4453785;32;34571;-77
2022/03/07 07:39:41;;;;;;;31.08;15.48;;;;;;;3.60;44.85;100137.62;4453841;32;33693;-77
2022/03/07 07:42:10;;;;;;;35.05;16.48;;;;;;;3.67;44.62;100142.44;4440918;32;33656;-78
2022/03/07 07:44:44;;;;;;;31.23;16.23;;;;;;;3.71;44.82;100155.53;4466241;32;35532;-77
2022/03/07 07:47:20;;;;;;;33.28;16.00;;;;;;;3.79;44.22;100150.19;4466405;32;34696;-77
2022/03/07 07:49:50;;;;;;;32.15;16.58;;;;;;;3.53;44.87;100146.53;4467096;32;34273;-76
2022/03/07 07:52:24;;;;;;;29.60;16.08;;;;;;;3.60;45.07;100148.47;4441339;32;34424;-77
2022/03/07 07:54:54;;;;;;;29.30;14.77;;;;;;;3.90;44.43;100143.69;4453773;32;34373;-77
2022/03/07 07:57:29;;;;;;;28.77;15.10;;;;;;;3.91;43.84;100140.78;4454186;32;33848;-77
2022/03/07 08:00:06;;;;;;;37.35;16.05;;;;;;;4.18;43.40;100156.16;4445407;32;33296;-77
2022/03/07 08:02:59;;;;;;;25.77;13.30;;;;;;;3.89;44.18;100164.56;4433369;32;32651;-73
2022/03/07 08:05:33;;;;;;;33.47;14.90;;;;;;;4.27;56.99;100166.06;4430068;32;33289;-78
2022/03/07 08:08:04;;;;;;;29.75;15.32;;;;;;;4.54;47.68;100169.69;4441219;32;33760;-77
2022/03/07 08:10:44;;;;;;;33.13;15.95;;;;;;;4.59;43.57;100176.31;4441139;32;33049;-78
2022/03/07 08:13:16;;;;;;;31.77;16.35;;;;;;;3.81;43.58;100177.19;4427393;32;31988;-77
2022/03/07 08:15:50;;;;;;;32.53;15.57;;;;;;;4.06;43.22;100170.13;4441086;32;34341;-77
2022/03/07 08:18:39;;;;;;;29.37;15.13;;;;;;;4.13;42.95;100177.50;4430045;32;33247;-77
2022/03/07 08:21:11;;;;;;;35.15;17.30;;;;;;;4.16;43.04;100182.59;4428039;32;32291;-77
2022/03/07 08:23:44;;;;;;;29.85;15.07;;;;;;;4.23;42.82;100188.28;4440779;32;32187;-79
2022/03/07 08:26:15;;;;;;;30.73;15.98;;;;;;;3.85;43.33;100179.44;4440899;32;34000;-77
2022/03/07 08:28:51;;;;;;;32.25;15.48;;;;;;;4.12;43.52;100180.34;4440844;32;34527;-77
2022/03/07 08:31:22;;;;;;;35.38;17.77;;;;;;;4.10;42.96;100185.94;4440847;32;32080;-77
2022/03/07 08:33:57;;;;;;;32.85;15.68;;;;;;;4.20;43.23;100170.44;4453547;32;34903;-78
2022/03/07 08:36:34;;;;;;;30.10;14.63;;;;;;;4.29;42.76;100164.06;4441199;32;34008;-78
2022/03/07 08:39:07;;;;;;;27.85;15.45;;;;;;;4.34;42.58;100165.44;4427914;32;33422;-77
2022/03/07 08:41:34;;;;;;;28.05;14.85;;;;;;;4.24;42.09;100152.81;4440979;32;33000;-77
2022/03/07 08:44:05;;;;;;;28.85;15.13;;;;;;;4.45;42.07;100143.47;4440032;32;33327;-77
2022/03/07 08:46:41;;;;;;;30.80;15.18;;;;;;;4.30;42.27;100135.03;4453325;32;34462;-74
2022/03/07 08:49:17;;;;;;;30.62;15.02;;;;;;;4.32;42.64;100143.00;4453363;32;34873;-74
2022/03/07 08:51:49;;;;;;;28.00;14.85;;;;;;;4.56;41.76;100149.47;4453579;32;35039;-75
2022/03/07 08:54:19;;;;;;;31.15;15.82;;;;;;;4.08;42.55;100158.09;4440678;32;33343;-76
2022/03/07 08:56:51;;;;;;;29.05;14.90;;;;;;;4.38;42.27;100150.53;4440973;32;34421;-77
2022/03/07 08:59:27;;;;;;;31.70;15.32;;;;;;;4.53;42.21;100159.81;4440658;32;34045;-77
2022/03/07 09:02:04;;;;;;;30.17;16.12;;;;;;;4.59;42.18;100162.72;4452432;32;32076;-76
2022/03/07 09:04:32;;;;;;;28.70;16.55;;;;;;;5.10;40.96;100162.87;4440346;32;32357;-77
2022/03/07 09:07:02;;;;;;;27.77;16.00;;;;;;;5.00;41.04;100156.72;4440362;32;34214;-77
2022/03/07 09:09:34;;;;;;;28.87;15.48;;;;;;;5.26;40.84;100160.22;4440647;32;34798;-77
2022/03/07 09:12:03;;;;;;;35.60;15.20;;;;;;;4.75;41.72;100162.00;4452923;32;33343;-77
2022/03/07 09:14:37;;;;;;;29.25;16.23;;;;;;;4.66;41.53;100153.94;4438571;32;34650;-76
2022/03/07 09:17:07;;;;;;;25.05;14.13;;;;;;;4.84;41.02;100147.44;4438443;32;33369;-77
2022/03/07 09:19:35;;;;;;;27.92;14.18;;;;;;;4.62;41.07;100145.25;4437097;32;32375;-78
2022/03/07 09:22:23;;;;;;;31.87;14.90;;;;;;;4.81;43.02;100145.03;4439346;32;33429;-76
2022/03/07 09:24:56;;;;;;;29.52;15.73;;;;;;;4.63;44.00;100146.97;4441033;32;34437;-77
2022/03/07 09:27:37;;;;;;;33.03;16.75;;;;;;;5.13;42.05;100141.66;4428286;32;34270;-77
2022/03/07 09:30:11;;;;;;;27.42;15.85;;;;;;;5.29;40.92;100138.13;4440734;32;32181;-77
2022/03/07 09:32:47;;;;;;;32.90;16.50;;;;;;;5.46;42.29;100145.31;4440843;32;33462;-77
2022/03/07 09:35:17;;;;;;;;;;;;;;;4.77;41.60;100140.94;4453372;32;34077;-77
2022/03/07 09:37:51;;;;;;;30.33;14.82;;;;;;;4.40;42.06;100151.22;4453202;32;34553;-77
2022/03/07 09:40:19;;;;;;;31.40;16.12;;;;;;;4.50;41.75;100157.44;4453831;32;33882;-77
2022/03/07 09:42:50;;;;;;;30.62;15.38;;;;;;;4.48;41.75;100154.88;4452888;32;34155;-76
2022/03/07 09:45:22;;;;;;;26.20;14.85;;;;;;;4.39;44.82;100152.25;4452996;32;33836;-77
2022/03/07 09:48:02;;;;;;;33.13;17.98;;;;;;;4.92;43.25;100150.22;4440434;32;32960;-76
2022/03/07 09:50:35;;;;;;;30.90;16.45;;;;;;;5.45;42.78;100140.91;4454034;32;34507;-76
2022/03/07 09:53:09;;;;;;;26.27;14.52;;;;;;;4.95;42.46;100140.88;4452912;32;31970;-77
2022/03/07 09:55:39;;;;;;;27.37;16.25;;;;;;;5.07;41.63;100139.56;4440433;32;32300;-77
2022/03/07 09:58:07;;;;;;;25.98;14.85;;;;;;;5.41;40.53;100133.22;4439907;32;34462;-77
2022/03/07 10:00:41;;;;;;;30.50;15.55;;;;;;;5.04;41.10;100148.06;4439861;32;34184;-77
2022/03/07 10:03:14;;;;;;;28.92;15.20;;;;;;;4.92;40.96;100146.63;4440002;32;33750;-76
2022/03/07 10:05:52;;;;;;;28.83;15.18;;;;;;;5.41;40.33;100144.12;4427083;32;32594;-76
2022/03/07 10:08:25;;;;;;;28.55;15.57;;;;;;;4.96;41.12;100148.03;4452600;32;34623;-77
2022/03/07 10:10:56;;;;;;;25.50;15.68;;;;;;;5.36;40.47;100155.50;4452472;32;33879;-77
2022/03/07 10:13:30;;;;;;;29.75;15.77;;;;;;;5.56;40.01;100143.31;4440089;32;32100;-76
2022/03/07 10:16:04;;;;;;;34.63;18.08;;;;;;;5.40;40.59;100140.53;4441761;32;33784;-76
2022/03/07 10:18:33;;;;;;;33.30;15.48;;;;;;;5.26;40.88;100143.88;4468085;32;34250;-76
2022/03/07 10:21:02;;;;;;;28.38;15.48;;;;;;;4.47;41.82;100150.44;4456987;32;32596;-77
2022/03/07 10:23:35;;;;;;;29.37;16.62;;;;;;;4.78;41.77;100139.91;4469683;32;34478;-77
2022/03/07 10:26:08;;;;;;;29.15;16.15;;;;;;;4.82;41.64;100132.28;4456775;32;34675;-75
2022/03/07 10:28:42;;;;;;;34.58;17.58;;;;;;;4.74;41.18;100129.53;4457587;32;33005;-75
2022/03/07 10:31:14;;;;;;;30.25;17.35;;;;;;;4.59;41.73;100140.12;4469663;32;34546;-75
2022/03/07 10:33:42;;;;;;;31.23;15.90;;;;;;;4.69;41.55;100138.16;4469861;32;33437;-75
2022/03/07 10:36:13;;;;;;;28.52;15.68;;;;;;;4.77;41.70;100131.94;4469688;32;33531;-75
2022/03/07 10:38:43;;;;;;;37.95;18.58;;;;;;;5.17;40.90;100125.84;4469389;32;34407;-75
2022/03/07 10:41:11;;;;;;;38.17;19.60;;;;;;;5.15;41.26;100127.88;4469657;32;34750;-75
2022/03/07 10:43:46;;;;;;;43.60;19.42;;;;;;;4.69;41.84;100130.00;4470767;32;33586;-75
2022/03/07 10:46:24;;;;;;;36.80;19.25;;;;;;;4.41;42.11;100128.47;4457002;32;34287;-75
2022/03/07 10:48:55;;;;;;;38.67;19.15;;;;;;;4.53;42.17;100119.91;4469585;32;34403;-75
2022/03/07 10:51:25;;;;;;;33.20;17.90;;;;;;;4.62;41.00;100112.63;4470935;32;33769;-75
2022/03/07 10:53:54;;;;;;;34.55;19.35;;;;;;;4.60;41.40;100104.63;4469641;32;33612;-75
2022/03/07 10:56:23;;;;;;;35.30;18.73;;;;;;;4.57;41.74;100096.81;4463237;32;203773;-75
2022/03/07 10:58:54;;;;;;;37.17;19.48;;;;;;;4.76;41.41;100103.03;4468616;32;34116;-75
2022/03/07 11:01:32;;;;;;;37.58;19.45;;;;;;;4.61;41.28;100097.34;4456878;32;34000;-75
2022/03/07 11:04:01;;;;;;;35.10;19.95;;;;;;;5.12;40.80;100103.72;4457009;32;33072;-75
2022/03/07 11:06:31;;;;;;;42.75;22.10;;;;;;;4.18;43.23;100099.09;4469763;32;33742;-75
2022/03/07 11:08:58;;;;;;;50.50;26.98;;;;;;;4.44;42.29;100090.97;4457015;32;33094;-75
2022/03/07 11:11:27;;;;;;;38.47;21.87;;;;;;;5.09;41.87;100087.72;4456932;32;33519;-75
2022/03/07 11:13:55;;;;;;;41.92;23.33;;;;;;;4.68;42.29;100082.09;4457093;32;32838;-75
2022/03/07 11:16:27;;;;;;;40.33;20.05;;;;;;;4.92;41.23;100078.66;4469679;32;33735;-75
2022/03/07 11:18:55;;;;;;;38.45;19.95;;;;;;;4.89;40.92;100076.25;4469815;32;34389;-75
2022/03/07 11:21:30;;;;;;;39.22;19.85;;;;;;;5.07;40.32;100066.12;4470626;32;34634;-75
2022/03/07 11:23:58;;;;;;;39.28;20.75;;;;;;;5.08;40.62;100073.28;4469568;32;33991;-76
2022/03/07 11:26:26;;;;;;;38.78;22.45;;;;;;;4.95;40.44;100062.00;4456278;32;33918;-76
2022/03/07 11:28:57;;;;;;;53.35;27.98;;;;;;;4.44;42.45;100060.22;4443917;32;33905;-76
2022/03/07 11:31:28;;;;;;;42.95;22.87;;;;;;;4.78;41.25;100054.78;4457291;32;33431;-79
2022/03/07 11:34:06;;;;;;;42.88;21.35;;;;;;;4.55;41.21;100058.06;4456814;32;34280;-77
2022/03/07 11:36:41;;;;;;;40.05;21.35;;;;;;;4.58;40.85;100049.59;4469613;32;34675;-76
2022/03/07 11:39:09;;;;;;;38.58;19.50;;;;;;;4.67;40.82;100055.91;4456833;32;33927;-76
2022/03/07 11:41:39;;;;;;;36.92;19.65;;;;;;;4.68;40.95;100051.34;4469421;32;34583;-76
2022/03/07 11:44:13;;;;;;;39.30;19.02;;;;;;;4.54;41.24;100042.78;4469659;32;33547;-76
2022/03/07 11:46:47;;;;;;;34.72;18.48;;;;;;;4.37;41.14;100053.72;4456569;32;33549;-74
2022/03/07 11:49:28;;;;;;;36.97;19.30;;;;;;;4.87;47.63;100042.94;4469472;32;35483;-75